sensor_id;sensor_type;location;lat;lon;timestamp;P1;durP1;ratioP1;P2;durP2;ratioP2
55641;SDS011;41509;53.108;6.100;2022-12-10T00:00:35;38.93;;;16.20;;
55641;SDS011;41509;53.108;6.100;2022-12-10T00:03:01;34.53;;;16.70;;
55641;SDS011;41509;53.108;6.100;2022-12-10T00:05:27;35.73;;;14.50;;
55641;SDS011;41509;53.108;6.100;2022-12-10T00:07:52;41.43;;;16.77;;
55641;SDS011;41509;53.108;6.100;2022-12-10T00:10:18;42.50;;;16.40;;
55641;SDS011;41509;53.108;6.100;2022-12-10T00:12:44;33.23;;;13.73;;
55641;SDS011;41509;53.108;6.100;2022-12-10T00:15:09;37.30;;;14.97;;
55641;SDS011;41509;53.108;6.100;2022-12-10T00:17:35;43.47;;;15.90;;
55641;SDS011;41509;53.108;6.100;2022-12-10T00:20:01;40.45;;;15.60;;
55641;SDS011;41509;53.108;6.100;2022-12-10T00:22:27;45.70;;;16.63;;
55641;SDS011;41509;53.108;6.100;2022-12-10T00:24:53;45.50;;;14.63;;
55641;SDS011;41509;53.108;6.100;2022-12-10T00:27:19;37.40;;;14.63;;
55641;SDS011;41509;53.108;6.100;2022-12-10T00:29:44;42.73;;;15.53;;
55641;SDS011;41509;53.108;6.100;2022-12-10T00:32:10;41.97;;;16.23;;
55641;SDS011;41509;53.108;6.100;2022-12-10T00:34:35;40.43;;;16.27;;
55641;SDS011;41509;53.108;6.100;2022-12-10T00:37:01;41.90;;;15.87;;
55641;SDS011;41509;53.108;6.100;2022-12-10T00:39:27;40.87;;;14.17;;
55641;SDS011;41509;53.108;6.100;2022-12-10T00:41:54;39.97;;;15.73;;
55641;SDS011;41509;53.108;6.100;2022-12-10T00:44:20;36.80;;;15.73;;
55641;SDS011;41509;53.108;6.100;2022-12-10T00:46:45;42.07;;;16.43;;
55641;SDS011;41509;53.108;6.100;2022-12-10T00:49:11;43.57;;;15.83;;
55641;SDS011;41509;53.108;6.100;2022-12-10T00:51:37;38.65;;;15.52;;
55641;SDS011;41509;53.108;6.100;2022-12-10T00:54:03;37.17;;;15.73;;
55641;SDS011;41509;53.108;6.100;2022-12-10T00:56:30;37.40;;;14.77;;
55641;SDS011;41509;53.108;6.100;2022-12-10T00:58:57;43.35;;;16.70;;
55641;SDS011;41509;53.108;6.100;2022-12-10T01:03:58;36.20;;;15.05;;
55641;SDS011;41509;53.108;6.100;2022-12-10T01:06:32;41.17;;;16.75;;
55641;SDS011;41509;53.108;6.100;2022-12-10T01:09:01;42.53;;;17.05;;
55641;SDS011;41509;53.108;6.100;2022-12-10T01:11:30;41.80;;;17.15;;
55641;SDS011;41509;53.108;6.100;2022-12-10T01:13:58;39.55;;;15.52;;
55641;SDS011;41509;53.108;6.100;2022-12-10T01:16:24;42.15;;;16.42;;
55641;SDS011;41509;53.108;6.100;2022-12-10T01:18:57;41.13;;;15.68;;
55641;SDS011;41509;53.108;6.100;2022-12-10T01:21:24;51.30;;;18.13;;
55641;SDS011;41509;53.108;6.100;2022-12-10T01:23:52;52.53;;;16.38;;
55641;SDS011;41509;53.108;6.100;2022-12-10T01:26:19;43.10;;;16.42;;
55641;SDS011;41509;53.108;6.100;2022-12-10T01:28:47;39.95;;;16.10;;
55641;SDS011;41509;53.108;6.100;2022-12-10T01:33:45;41.63;;;15.70;;
55641;SDS011;41509;53.108;6.100;2022-12-10T01:36:13;36.38;;;15.23;;
55641;SDS011;41509;53.108;6.100;2022-12-10T01:38:44;39.38;;;14.10;;
55641;SDS011;41509;53.108;6.100;2022-12-10T01:41:15;45.65;;;17.50;;
55641;SDS011;41509;53.108;6.100;2022-12-10T01:43:53;40.28;;;15.20;;
55641;SDS011;41509;53.108;6.100;2022-12-10T01:46:50;40.13;;;16.05;;
55641;SDS011;41509;53.108;6.100;2022-12-10T01:49:26;40.60;;;15.77;;
55641;SDS011;41509;53.108;6.100;2022-12-10T01:52:00;40.85;;;16.80;;
55641;SDS011;41509;53.108;6.100;2022-12-10T01:54:48;47.08;;;16.85;;
55641;SDS011;41509;53.108;6.100;2022-12-10T01:57:14;44.85;;;15.20;;
55641;SDS011;41509;53.108;6.100;2022-12-10T01:59:44;42.45;;;16.63;;
55641;SDS011;41509;53.108;6.100;2022-12-10T02:02:27;48.53;;;17.67;;
55641;SDS011;41509;53.108;6.100;2022-12-10T02:05:02;41.05;;;16.08;;
55641;SDS011;41509;53.108;6.100;2022-12-10T02:07:54;38.25;;;14.93;;
55641;SDS011;41509;53.108;6.100;2022-12-10T02:16:04;47.25;;;17.48;;
55641;SDS011;41509;53.108;6.100;2022-12-10T02:21:18;34.90;;;14.38;;
55641;SDS011;41509;53.108;6.100;2022-12-10T02:23:49;41.40;;;15.32;;
55641;SDS011;41509;53.108;6.100;2022-12-10T02:29:17;37.67;;;14.77;;
55641;SDS011;41509;53.108;6.100;2022-12-10T02:32:08;37.05;;;15.15;;
55641;SDS011;41509;53.108;6.100;2022-12-10T02:34:43;40.72;;;16.55;;
55641;SDS011;41509;53.108;6.100;2022-12-10T02:37:20;39.42;;;15.70;;
55641;SDS011;41509;53.108;6.100;2022-12-10T02:40:04;40.78;;;16.27;;
55641;SDS011;41509;53.108;6.100;2022-12-10T02:42:35;44.10;;;16.65;;
55641;SDS011;41509;53.108;6.100;2022-12-10T02:45:03;47.35;;;17.02;;
55641;SDS011;41509;53.108;6.100;2022-12-10T02:47:30;48.03;;;16.98;;
55641;SDS011;41509;53.108;6.100;2022-12-10T02:49:56;37.88;;;14.75;;
55641;SDS011;41509;53.108;6.100;2022-12-10T02:52:24;38.72;;;15.63;;
55641;SDS011;41509;53.108;6.100;2022-12-10T02:54:50;38.08;;;15.15;;
55641;SDS011;41509;53.108;6.100;2022-12-10T03:00:25;39.25;;;16.35;;
55641;SDS011;41509;53.108;6.100;2022-12-10T03:08:14;42.80;;;16.17;;
55641;SDS011;41509;53.108;6.100;2022-12-10T03:16:34;45.47;;;15.30;;
55641;SDS011;41509;53.108;6.100;2022-12-10T03:19:04;48.40;;;17.02;;
55641;SDS011;41509;53.108;6.100;2022-12-10T03:21:33;42.63;;;16.80;;
55641;SDS011;41509;53.108;6.100;2022-12-10T03:24:01;41.50;;;16.45;;
55641;SDS011;41509;53.108;6.100;2022-12-10T03:28:56;41.33;;;16.67;;
55641;SDS011;41509;53.108;6.100;2022-12-10T03:31:27;49.63;;;18.45;;
55641;SDS011;41509;53.108;6.100;2022-12-10T03:33:54;40.38;;;16.33;;
55641;SDS011;41509;53.108;6.100;2022-12-10T03:36:19;46.30;;;16.77;;
55641;SDS011;41509;53.108;6.100;2022-12-10T03:41:11;38.42;;;15.65;;
55641;SDS011;41509;53.108;6.100;2022-12-10T03:46:36;54.45;;;17.17;;
55641;SDS011;41509;53.108;6.100;2022-12-10T03:49:02;44.50;;;17.50;;
55641;SDS011;41509;53.108;6.100;2022-12-10T03:51:28;47.07;;;16.87;;
55641;SDS011;41509;53.108;6.100;2022-12-10T03:53:54;50.13;;;15.80;;
55641;SDS011;41509;53.108;6.100;2022-12-10T03:56:20;46.00;;;15.87;;
55641;SDS011;41509;53.108;6.100;2022-12-10T03:58:46;46.72;;;16.90;;
55641;SDS011;41509;53.108;6.100;2022-12-10T04:01:12;46.43;;;17.20;;
55641;SDS011;41509;53.108;6.100;2022-12-10T04:03:39;45.75;;;16.30;;
55641;SDS011;41509;53.108;6.100;2022-12-10T04:06:07;47.00;;;17.27;;
55641;SDS011;41509;53.108;6.100;2022-12-10T04:08:37;56.17;;;17.40;;
55641;SDS011;41509;53.108;6.100;2022-12-10T04:11:07;56.67;;;16.83;;
55641;SDS011;41509;53.108;6.100;2022-12-10T04:13:34;44.53;;;15.13;;
55641;SDS011;41509;53.108;6.100;2022-12-10T04:16:20;43.05;;;16.67;;
55641;SDS011;41509;53.108;6.100;2022-12-10T04:18:52;52.00;;;15.90;;
55641;SDS011;41509;53.108;6.100;2022-12-10T04:21:19;47.13;;;15.50;;
55641;SDS011;41509;53.108;6.100;2022-12-10T04:24:03;61.22;;;14.25;;
55641;SDS011;41509;53.108;6.100;2022-12-10T04:26:48;58.45;;;17.40;;
55641;SDS011;41509;53.108;6.100;2022-12-10T04:29:17;55.28;;;15.38;;
55641;SDS011;41509;53.108;6.100;2022-12-10T04:31:47;61.08;;;16.23;;
55641;SDS011;41509;53.108;6.100;2022-12-10T04:34:12;55.90;;;15.40;;
55641;SDS011;41509;53.108;6.100;2022-12-10T04:36:38;49.50;;;15.13;;
55641;SDS011;41509;53.108;6.100;2022-12-10T04:39:03;60.67;;;13.73;;
55641;SDS011;41509;53.108;6.100;2022-12-10T04:41:29;87.80;;;16.77;;
55641;SDS011;41509;53.108;6.100;2022-12-10T04:43:55;63.43;;;15.47;;
55641;SDS011;41509;53.108;6.100;2022-12-10T04:46:20;84.67;;;16.73;;
55641;SDS011;41509;53.108;6.100;2022-12-10T04:48:46;59.73;;;16.07;;
55641;SDS011;41509;53.108;6.100;2022-12-10T04:51:12;76.77;;;16.00;;
55641;SDS011;41509;53.108;6.100;2022-12-10T04:53:40;83.73;;;17.63;;
55641;SDS011;41509;53.108;6.100;2022-12-10T04:58:39;61.95;;;15.32;;
55641;SDS011;41509;53.108;6.100;2022-12-10T05:01:05;80.10;;;14.87;;
55641;SDS011;41509;53.108;6.100;2022-12-10T05:03:33;51.42;;;15.55;;
55641;SDS011;41509;53.108;6.100;2022-12-10T05:08:29;77.88;;;13.20;;
55641;SDS011;41509;53.108;6.100;2022-12-10T05:10:59;56.22;;;15.48;;
55641;SDS011;41509;53.108;6.100;2022-12-10T05:13:27;71.72;;;14.98;;
55641;SDS011;41509;53.108;6.100;2022-12-10T05:15:52;65.03;;;14.70;;
55641;SDS011;41509;53.108;6.100;2022-12-10T05:18:18;56.10;;;14.90;;
55641;SDS011;41509;53.108;6.100;2022-12-10T05:20:44;55.50;;;14.37;;
55641;SDS011;41509;53.108;6.100;2022-12-10T05:23:09;55.47;;;14.37;;
55641;SDS011;41509;53.108;6.100;2022-12-10T05:28:41;45.65;;;14.18;;
55641;SDS011;41509;53.108;6.100;2022-12-10T05:31:16;87.63;;;16.40;;
55641;SDS011;41509;53.108;6.100;2022-12-10T05:33:46;67.53;;;14.95;;
55641;SDS011;41509;53.108;6.100;2022-12-10T05:36:13;83.25;;;15.00;;
55641;SDS011;41509;53.108;6.100;2022-12-10T05:38:40;74.10;;;15.23;;
55641;SDS011;41509;53.108;6.100;2022-12-10T05:41:11;68.60;;;18.13;;
55641;SDS011;41509;53.108;6.100;2022-12-10T05:43:39;68.78;;;15.05;;
55641;SDS011;41509;53.108;6.100;2022-12-10T05:46:06;60.53;;;13.23;;
55641;SDS011;41509;53.108;6.100;2022-12-10T05:48:34;44.90;;;14.30;;
55641;SDS011;41509;53.108;6.100;2022-12-10T05:51:04;64.53;;;13.68;;
55641;SDS011;41509;53.108;6.100;2022-12-10T05:53:30;48.45;;;12.40;;
55641;SDS011;41509;53.108;6.100;2022-12-10T05:56:03;65.83;;;14.90;;
55641;SDS011;41509;53.108;6.100;2022-12-10T05:58:34;58.42;;;13.57;;
55641;SDS011;41509;53.108;6.100;2022-12-10T06:01:05;57.70;;;13.23;;
55641;SDS011;41509;53.108;6.100;2022-12-10T06:03:34;57.53;;;13.00;;
55641;SDS011;41509;53.108;6.100;2022-12-10T06:05:59;60.42;;;13.45;;
55641;SDS011;41509;53.108;6.100;2022-12-10T06:08:25;65.27;;;14.20;;
55641;SDS011;41509;53.108;6.100;2022-12-10T06:10:51;55.97;;;13.07;;
55641;SDS011;41509;53.108;6.100;2022-12-10T06:13:16;41.07;;;12.77;;
55641;SDS011;41509;53.108;6.100;2022-12-10T06:15:42;42.47;;;10.80;;
55641;SDS011;41509;53.108;6.100;2022-12-10T06:18:08;68.50;;;13.07;;
55641;SDS011;41509;53.108;6.100;2022-12-10T06:20:33;88.27;;;12.93;;
55641;SDS011;41509;53.108;6.100;2022-12-10T06:23:02;71.65;;;12.90;;
55641;SDS011;41509;53.108;6.100;2022-12-10T06:25:27;53.33;;;11.60;;
55641;SDS011;41509;53.108;6.100;2022-12-10T06:27:53;34.23;;;11.50;;
55641;SDS011;41509;53.108;6.100;2022-12-10T06:30:19;37.70;;;10.23;;
55641;SDS011;41509;53.108;6.100;2022-12-10T06:32:44;61.43;;;12.07;;
55641;SDS011;41509;53.108;6.100;2022-12-10T06:35:10;56.23;;;10.80;;
55641;SDS011;41509;53.108;6.100;2022-12-10T06:37:36;38.80;;;11.57;;
55641;SDS011;41509;53.108;6.100;2022-12-10T06:40:02;49.63;;;13.07;;
55641;SDS011;41509;53.108;6.100;2022-12-10T06:42:29;58.60;;;12.00;;
55641;SDS011;41509;53.108;6.100;2022-12-10T06:44:55;53.90;;;11.33;;
55641;SDS011;41509;53.108;6.100;2022-12-10T06:47:21;31.83;;;10.23;;
55641;SDS011;41509;53.108;6.100;2022-12-10T06:49:47;56.43;;;12.07;;
55641;SDS011;41509;53.108;6.100;2022-12-10T06:52:12;38.70;;;10.77;;
55641;SDS011;41509;53.108;6.100;2022-12-10T06:54:38;35.50;;;10.93;;
55641;SDS011;41509;53.108;6.100;2022-12-10T06:57:04;62.70;;;10.73;;
55641;SDS011;41509;53.108;6.100;2022-12-10T06:59:30;48.37;;;9.53;;
55641;SDS011;41509;53.108;6.100;2022-12-10T07:01:55;38.90;;;9.80;;
55641;SDS011;41509;53.108;6.100;2022-12-10T07:04:21;62.73;;;11.40;;
55641;SDS011;41509;53.108;6.100;2022-12-10T07:06:46;40.53;;;9.67;;
55641;SDS011;41509;53.108;6.100;2022-12-10T07:09:12;57.27;;;10.77;;
55641;SDS011;41509;53.108;6.100;2022-12-10T07:11:38;47.10;;;9.07;;
55641;SDS011;41509;53.108;6.100;2022-12-10T07:14:04;42.13;;;9.60;;
55641;SDS011;41509;53.108;6.100;2022-12-10T07:16:30;36.07;;;9.83;;
55641;SDS011;41509;53.108;6.100;2022-12-10T07:18:57;42.47;;;9.68;;
55641;SDS011;41509;53.108;6.100;2022-12-10T07:21:34;33.33;;;8.93;;
55641;SDS011;41509;53.108;6.100;2022-12-10T07:24:05;29.65;;;8.57;;
55641;SDS011;41509;53.108;6.100;2022-12-10T07:26:34;30.48;;;9.13;;
55641;SDS011;41509;53.108;6.100;2022-12-10T07:29:02;30.58;;;8.73;;
55641;SDS011;41509;53.108;6.100;2022-12-10T07:31:29;38.65;;;9.32;;
55641;SDS011;41509;53.108;6.100;2022-12-10T07:33:56;33.22;;;8.32;;
55641;SDS011;41509;53.108;6.100;2022-12-10T07:36:23;57.58;;;9.18;;
55641;SDS011;41509;53.108;6.100;2022-12-10T07:38:49;44.10;;;8.63;;
55641;SDS011;41509;53.108;6.100;2022-12-10T07:43:43;48.97;;;7.82;;
55641;SDS011;41509;53.108;6.100;2022-12-10T07:46:11;37.30;;;8.60;;
55641;SDS011;41509;53.108;6.100;2022-12-10T07:48:38;49.10;;;8.55;;
55641;SDS011;41509;53.108;6.100;2022-12-10T07:51:06;61.10;;;8.75;;
55641;SDS011;41509;53.108;6.100;2022-12-10T07:53:32;59.70;;;9.70;;
55641;SDS011;41509;53.108;6.100;2022-12-10T07:55:58;37.15;;;7.85;;
55641;SDS011;41509;53.108;6.100;2022-12-10T07:58:23;42.03;;;9.13;;
55641;SDS011;41509;53.108;6.100;2022-12-10T08:00:49;32.57;;;7.83;;
55641;SDS011;41509;53.108;6.100;2022-12-10T08:03:15;52.53;;;9.25;;
55641;SDS011;41509;53.108;6.100;2022-12-10T08:05:41;27.43;;;8.53;;
55641;SDS011;41509;53.108;6.100;2022-12-10T08:08:06;61.47;;;9.70;;
55641;SDS011;41509;53.108;6.100;2022-12-10T08:10:35;38.60;;;9.13;;
55641;SDS011;41509;53.108;6.100;2022-12-10T08:13:02;53.33;;;9.45;;
55641;SDS011;41509;53.108;6.100;2022-12-10T08:15:29;38.15;;;8.65;;
55641;SDS011;41509;53.108;6.100;2022-12-10T08:17:55;35.17;;;7.13;;
55641;SDS011;41509;53.108;6.100;2022-12-10T08:20:21;44.78;;;9.68;;
55641;SDS011;41509;53.108;6.100;2022-12-10T08:22:47;54.17;;;10.43;;
55641;SDS011;41509;53.108;6.100;2022-12-10T08:25:13;28.97;;;8.83;;
55641;SDS011;41509;53.108;6.100;2022-12-10T08:27:39;37.43;;;8.23;;
55641;SDS011;41509;53.108;6.100;2022-12-10T08:30:05;44.30;;;9.37;;
55641;SDS011;41509;53.108;6.100;2022-12-10T08:32:31;40.15;;;9.68;;
55641;SDS011;41509;53.108;6.100;2022-12-10T08:34:56;38.63;;;8.17;;
55641;SDS011;41509;53.108;6.100;2022-12-10T08:37:22;35.53;;;8.50;;
55641;SDS011;41509;53.108;6.100;2022-12-10T08:39:48;37.90;;;9.17;;
55641;SDS011;41509;53.108;6.100;2022-12-10T08:42:13;33.47;;;7.17;;
55641;SDS011;41509;53.108;6.100;2022-12-10T08:44:39;31.25;;;8.57;;
55641;SDS011;41509;53.108;6.100;2022-12-10T08:47:05;44.23;;;8.73;;
55641;SDS011;41509;53.108;6.100;2022-12-10T08:49:31;50.70;;;8.77;;
55641;SDS011;41509;53.108;6.100;2022-12-10T08:51:56;52.23;;;8.63;;
55641;SDS011;41509;53.108;6.100;2022-12-10T08:54:22;41.90;;;8.10;;
55641;SDS011;41509;53.108;6.100;2022-12-10T08:56:48;52.93;;;9.23;;
55641;SDS011;41509;53.108;6.100;2022-12-10T08:59:13;45.27;;;8.53;;
55641;SDS011;41509;53.108;6.100;2022-12-10T09:01:39;31.73;;;8.23;;
55641;SDS011;41509;53.108;6.100;2022-12-10T09:04:04;38.23;;;8.57;;
55641;SDS011;41509;53.108;6.100;2022-12-10T09:06:30;51.77;;;9.10;;
55641;SDS011;41509;53.108;6.100;2022-12-10T09:08:56;46.63;;;7.37;;
55641;SDS011;41509;53.108;6.100;2022-12-10T09:11:26;37.30;;;9.17;;
55641;SDS011;41509;53.108;6.100;2022-12-10T09:13:53;33.03;;;8.48;;
55641;SDS011;41509;53.108;6.100;2022-12-10T09:16:19;34.03;;;8.52;;
55641;SDS011;41509;53.108;6.100;2022-12-10T09:18:45;34.13;;;8.65;;
55641;SDS011;41509;53.108;6.100;2022-12-10T09:21:15;26.00;;;8.00;;
55641;SDS011;41509;53.108;6.100;2022-12-10T09:23:42;38.75;;;8.98;;
55641;SDS011;41509;53.108;6.100;2022-12-10T09:26:09;30.95;;;9.00;;
55641;SDS011;41509;53.108;6.100;2022-12-10T09:28:38;29.08;;;8.38;;
55641;SDS011;41509;53.108;6.100;2022-12-10T09:33:31;26.23;;;7.10;;
55641;SDS011;41509;53.108;6.100;2022-12-10T09:35:57;34.97;;;7.47;;
55641;SDS011;41509;53.108;6.100;2022-12-10T09:38:23;27.00;;;8.30;;
55641;SDS011;41509;53.108;6.100;2022-12-10T09:43:28;32.10;;;8.88;;
55641;SDS011;41509;53.108;6.100;2022-12-10T09:49:01;35.38;;;9.90;;
55641;SDS011;41509;53.108;6.100;2022-12-10T09:51:45;35.40;;;8.50;;
55641;SDS011;41509;53.108;6.100;2022-12-10T09:54:29;23.03;;;8.17;;
55641;SDS011;41509;53.108;6.100;2022-12-10T09:56:58;40.30;;;9.45;;
55641;SDS011;41509;53.108;6.100;2022-12-10T09:59:32;35.47;;;9.43;;
55641;SDS011;41509;53.108;6.100;2022-12-10T10:04:46;32.85;;;10.23;;
55641;SDS011;41509;53.108;6.100;2022-12-10T10:07:16;35.42;;;9.07;;
55641;SDS011;41509;53.108;6.100;2022-12-10T10:10:03;46.97;;;9.35;;
55641;SDS011;41509;53.108;6.100;2022-12-10T10:12:32;33.92;;;7.80;;
55641;SDS011;41509;53.108;6.100;2022-12-10T10:14:59;33.60;;;8.07;;
55641;SDS011;41509;53.108;6.100;2022-12-10T10:17:39;32.88;;;7.80;;
55641;SDS011;41509;53.108;6.100;2022-12-10T10:20:10;25.40;;;8.73;;
55641;SDS011;41509;53.108;6.100;2022-12-10T10:22:37;35.47;;;8.48;;
55641;SDS011;41509;53.108;6.100;2022-12-10T10:25:05;48.13;;;8.48;;
55641;SDS011;41509;53.108;6.100;2022-12-10T10:27:38;42.83;;;9.25;;
55641;SDS011;41509;53.108;6.100;2022-12-10T10:30:04;22.97;;;8.40;;
55641;SDS011;41509;53.108;6.100;2022-12-10T10:35:00;31.48;;;8.75;;
55641;SDS011;41509;53.108;6.100;2022-12-10T10:39:59;29.75;;;9.25;;
55641;SDS011;41509;53.108;6.100;2022-12-10T10:42:32;24.17;;;8.33;;
55641;SDS011;41509;53.108;6.100;2022-12-10T10:45:04;21.27;;;8.15;;
55641;SDS011;41509;53.108;6.100;2022-12-10T10:48:03;27.60;;;7.47;;
55641;SDS011;41509;53.108;6.100;2022-12-10T11:02:17;27.17;;;8.27;;
55641;SDS011;41509;53.108;6.100;2022-12-10T11:05:25;30.70;;;9.02;;
55641;SDS011;41509;53.108;6.100;2022-12-10T11:09:08;28.42;;;7.43;;
55641;SDS011;41509;53.108;6.100;2022-12-10T11:11:40;20.13;;;7.85;;
55641;SDS011;41509;53.108;6.100;2022-12-10T11:14:13;23.08;;;7.15;;
55641;SDS011;41509;53.108;6.100;2022-12-10T11:16:40;25.48;;;8.38;;
55641;SDS011;41509;53.108;6.100;2022-12-10T11:19:16;31.17;;;8.57;;
55641;SDS011;41509;53.108;6.100;2022-12-10T11:21:46;23.27;;;8.43;;
55641;SDS011;41509;53.108;6.100;2022-12-10T11:24:12;27.47;;;8.40;;
55641;SDS011;41509;53.108;6.100;2022-12-10T11:32:15;20.40;;;7.05;;
55641;SDS011;41509;53.108;6.100;2022-12-10T11:40:22;20.52;;;8.63;;
55641;SDS011;41509;53.108;6.100;2022-12-10T11:45:58;21.00;;;8.90;;
55641;SDS011;41509;53.108;6.100;2022-12-10T11:48:55;23.80;;;8.27;;
55641;SDS011;41509;53.108;6.100;2022-12-10T11:51:50;22.77;;;8.63;;
55641;SDS011;41509;53.108;6.100;2022-12-10T11:54:29;25.55;;;9.32;;
55641;SDS011;41509;53.108;6.100;2022-12-10T12:07:55;31.05;;;10.40;;
55641;SDS011;41509;53.108;6.100;2022-12-10T12:13:28;22.38;;;8.73;;
55641;SDS011;41509;53.108;6.100;2022-12-10T12:16:01;24.42;;;9.43;;
55641;SDS011;41509;53.108;6.100;2022-12-10T12:21:11;24.27;;;8.57;;
55641;SDS011;41509;53.108;6.100;2022-12-10T12:26:20;30.23;;;10.82;;
55641;SDS011;41509;53.108;6.100;2022-12-10T12:29:18;26.80;;;9.82;;
55641;SDS011;41509;53.108;6.100;2022-12-10T12:37:12;29.00;;;10.10;;
55641;SDS011;41509;53.108;6.100;2022-12-10T12:39:43;23.13;;;9.70;;
55641;SDS011;41509;53.108;6.100;2022-12-10T12:42:38;29.30;;;9.35;;
55641;SDS011;41509;53.108;6.100;2022-12-10T12:45:16;28.75;;;10.95;;
55641;SDS011;41509;53.108;6.100;2022-12-10T12:50:24;32.58;;;12.13;;
55641;SDS011;41509;53.108;6.100;2022-12-10T12:53:00;31.70;;;9.82;;
55641;SDS011;41509;53.108;6.100;2022-12-10T13:00:38;36.15;;;11.77;;
55641;SDS011;41509;53.108;6.100;2022-12-10T13:03:17;29.80;;;11.18;;
55641;SDS011;41509;53.108;6.100;2022-12-10T13:11:36;30.27;;;11.38;;
55641;SDS011;41509;53.108;6.100;2022-12-10T13:22:03;32.85;;;10.98;;
55641;SDS011;41509;53.108;6.100;2022-12-10T13:32:15;29.60;;;10.75;;
55641;SDS011;41509;53.108;6.100;2022-12-10T13:34:45;31.83;;;10.90;;
55641;SDS011;41509;53.108;6.100;2022-12-10T13:42:29;35.60;;;10.73;;
55641;SDS011;41509;53.108;6.100;2022-12-10T13:47:51;35.13;;;11.98;;
55641;SDS011;41509;53.108;6.100;2022-12-10T13:58:33;35.58;;;13.63;;
55641;SDS011;41509;53.108;6.100;2022-12-10T14:01:10;34.88;;;11.43;;
55641;SDS011;41509;53.108;6.100;2022-12-10T14:06:34;37.67;;;11.07;;
55641;SDS011;41509;53.108;6.100;2022-12-10T14:14:40;34.97;;;13.30;;
55641;SDS011;41509;53.108;6.100;2022-12-10T14:17:18;33.80;;;12.25;;
55641;SDS011;41509;53.108;6.100;2022-12-10T14:19:46;40.92;;;11.52;;
55641;SDS011;41509;53.108;6.100;2022-12-10T14:22:17;36.83;;;11.00;;
55641;SDS011;41509;53.108;6.100;2022-12-10T14:24:58;31.90;;;11.77;;
55641;SDS011;41509;53.108;6.100;2022-12-10T14:27:27;38.47;;;12.85;;
55641;SDS011;41509;53.108;6.100;2022-12-10T14:30:00;30.00;;;11.40;;
55641;SDS011;41509;53.108;6.100;2022-12-10T14:32:38;34.45;;;11.20;;
55641;SDS011;41509;53.108;6.100;2022-12-10T14:35:05;34.08;;;11.98;;
55641;SDS011;41509;53.108;6.100;2022-12-10T14:37:36;29.42;;;12.20;;
55641;SDS011;41509;53.108;6.100;2022-12-10T14:40:06;33.35;;;11.25;;
55641;SDS011;41509;53.108;6.100;2022-12-10T14:42:33;31.88;;;11.20;;
55641;SDS011;41509;53.108;6.100;2022-12-10T14:45:00;30.77;;;10.63;;
55641;SDS011;41509;53.108;6.100;2022-12-10T14:47:37;43.97;;;11.10;;
55641;SDS011;41509;53.108;6.100;2022-12-10T14:50:05;36.08;;;10.55;;
55641;SDS011;41509;53.108;6.100;2022-12-10T14:52:44;44.22;;;12.40;;
55641;SDS011;41509;53.108;6.100;2022-12-10T14:55:16;33.13;;;10.50;;
55641;SDS011;41509;53.108;6.100;2022-12-10T14:57:48;31.20;;;11.80;;
55641;SDS011;41509;53.108;6.100;2022-12-10T15:00:18;34.72;;;11.25;;
55641;SDS011;41509;53.108;6.100;2022-12-10T15:02:56;42.03;;;11.55;;
55641;SDS011;41509;53.108;6.100;2022-12-10T15:05:27;39.20;;;12.63;;
55641;SDS011;41509;53.108;6.100;2022-12-10T15:07:57;41.33;;;11.18;;
55641;SDS011;41509;53.108;6.100;2022-12-10T15:10:40;36.50;;;11.85;;
55641;SDS011;41509;53.108;6.100;2022-12-10T15:13:19;40.92;;;12.20;;
55641;SDS011;41509;53.108;6.100;2022-12-10T15:15:49;31.80;;;10.95;;
55641;SDS011;41509;53.108;6.100;2022-12-10T15:18:30;34.88;;;12.13;;
55641;SDS011;41509;53.108;6.100;2022-12-10T15:21:13;47.55;;;11.40;;
55641;SDS011;41509;53.108;6.100;2022-12-10T15:23:43;43.85;;;12.10;;
55641;SDS011;41509;53.108;6.100;2022-12-10T15:28:44;37.80;;;11.50;;
55641;SDS011;41509;53.108;6.100;2022-12-10T15:33:50;46.60;;;13.02;;
55641;SDS011;41509;53.108;6.100;2022-12-10T15:39:02;40.95;;;11.95;;
55641;SDS011;41509;53.108;6.100;2022-12-10T15:41:53;45.08;;;12.57;;
55641;SDS011;41509;53.108;6.100;2022-12-10T15:49:48;40.25;;;11.63;;
55641;SDS011;41509;53.108;6.100;2022-12-10T15:52:17;29.45;;;11.57;;
55641;SDS011;41509;53.108;6.100;2022-12-10T15:54:45;34.95;;;13.23;;
55641;SDS011;41509;53.108;6.100;2022-12-10T15:57:16;31.77;;;10.45;;
55641;SDS011;41509;53.108;6.100;2022-12-10T15:59:50;26.92;;;9.93;;
55641;SDS011;41509;53.108;6.100;2022-12-10T16:05:10;41.15;;;10.63;;
55641;SDS011;41509;53.108;6.100;2022-12-10T16:07:44;33.63;;;11.25;;
55641;SDS011;41509;53.108;6.100;2022-12-10T16:10:11;36.05;;;11.65;;
55641;SDS011;41509;53.108;6.100;2022-12-10T16:12:39;30.08;;;10.70;;
55641;SDS011;41509;53.108;6.100;2022-12-10T16:15:07;28.73;;;9.77;;
55641;SDS011;41509;53.108;6.100;2022-12-10T16:17:39;37.50;;;11.15;;
55641;SDS011;41509;53.108;6.100;2022-12-10T16:20:17;36.25;;;9.75;;
55641;SDS011;41509;53.108;6.100;2022-12-10T16:22:46;29.45;;;10.48;;
55641;SDS011;41509;53.108;6.100;2022-12-10T16:25:12;32.42;;;10.25;;
55641;SDS011;41509;53.108;6.100;2022-12-10T16:27:39;35.95;;;10.35;;
55641;SDS011;41509;53.108;6.100;2022-12-10T16:30:24;38.70;;;10.00;;
55641;SDS011;41509;53.108;6.100;2022-12-10T16:32:55;30.60;;;9.40;;
55641;SDS011;41509;53.108;6.100;2022-12-10T16:35:21;24.43;;;9.93;;
55641;SDS011;41509;53.108;6.100;2022-12-10T16:37:47;22.73;;;8.67;;
55641;SDS011;41509;53.108;6.100;2022-12-10T16:40:16;28.58;;;8.88;;
55641;SDS011;41509;53.108;6.100;2022-12-10T16:42:42;25.73;;;9.63;;
55641;SDS011;41509;53.108;6.100;2022-12-10T16:45:12;30.88;;;10.93;;
55641;SDS011;41509;53.108;6.100;2022-12-10T16:47:38;31.50;;;9.65;;
55641;SDS011;41509;53.108;6.100;2022-12-10T16:50:04;25.03;;;8.93;;
55641;SDS011;41509;53.108;6.100;2022-12-10T16:52:30;32.88;;;9.48;;
55641;SDS011;41509;53.108;6.100;2022-12-10T16:54:56;22.88;;;9.50;;
55641;SDS011;41509;53.108;6.100;2022-12-10T17:08:43;21.60;;;8.23;;
55641;SDS011;41509;53.108;6.100;2022-12-10T17:11:20;25.02;;;8.05;;
55641;SDS011;41509;53.108;6.100;2022-12-10T17:14:55;20.13;;;8.05;;
55641;SDS011;41509;53.108;6.100;2022-12-10T17:17:02;21.77;;;8.10;;
55641;SDS011;41509;53.108;6.100;2022-12-10T17:19:32;22.48;;;8.10;;
55641;SDS011;41509;53.108;6.100;2022-12-10T17:22:03;20.40;;;7.95;;
55641;SDS011;41509;53.108;6.100;2022-12-10T17:24:30;23.27;;;7.72;;
55641;SDS011;41509;53.108;6.100;2022-12-10T17:27:01;21.33;;;8.10;;
55641;SDS011;41509;53.108;6.100;2022-12-10T17:29:39;18.88;;;7.78;;
55641;SDS011;41509;53.108;6.100;2022-12-10T17:32:10;20.95;;;7.68;;
55641;SDS011;41509;53.108;6.100;2022-12-10T17:34:39;25.80;;;8.48;;
55641;SDS011;41509;53.108;6.100;2022-12-10T17:37:09;24.23;;;7.32;;
55641;SDS011;41509;53.108;6.100;2022-12-10T17:39:36;21.63;;;7.10;;
55641;SDS011;41509;53.108;6.100;2022-12-10T17:42:03;20.67;;;7.40;;
55641;SDS011;41509;53.108;6.100;2022-12-10T17:44:28;20.45;;;6.90;;
55641;SDS011;41509;53.108;6.100;2022-12-10T17:46:55;20.85;;;7.40;;
55641;SDS011;41509;53.108;6.100;2022-12-10T17:49:20;19.83;;;7.23;;
55641;SDS011;41509;53.108;6.100;2022-12-10T17:51:46;20.43;;;7.93;;
55641;SDS011;41509;53.108;6.100;2022-12-10T17:54:12;19.17;;;6.57;;
55641;SDS011;41509;53.108;6.100;2022-12-10T17:56:38;20.02;;;7.35;;
55641;SDS011;41509;53.108;6.100;2022-12-10T17:59:05;25.05;;;8.05;;